Tropical Cyclones
[Index]
Main Index Home Page Stock Weather Photos Extreme Storms Discussion Storm News and Storm Chasing Reports Tropical Cyclones / Hurricanes / Typhoons Weather Data and Links Wild Fires / Bushfires Weather Observation Techniques Weather Picture Catalogue Tornado Pictures and Reports Stock Video Footage and DVDs for sale
Season 2007-2008 Tropical Cyclone KAMBA Track Map
Season 2007-2008 Summaries (Operational Data): [AU] [SIO] [SPAC] [SH]
<<- Previous TC | 2007-2008 Season | Next TC ->>

click for intensity scale information  Lat/long Grid: Show Hide

 Date Labels: Show Hide

Operational Tropical Cyclone Data : JTWC Advisories

Name: KAMBA
Number: 0823

07 Mar 2008 00:00 UTC to 12 Mar 2008 12:00 UTC

    date/time    lat    long     hPa   cat  kts
2008-03-07 00   12.3    89.0    1000         25          
2008-03-07 06   12.3    88.4     999         25          
2008-03-07 12   11.8    86.7     997         30          
2008-03-07 18   11.7    88.4     997         30          
2008-03-08 00   12.2    87.4     995         30          
2008-03-08 06   12.6    86.5     995         30          
2008-03-08 12   12.9    86.0     995         30          
2008-03-08 18   13.0    86.1     995         30          
2008-03-09 00   13.5    85.0     994    1    35          
2008-03-09 06   14.0    83.0     987    1    45          
2008-03-09 12   14.7    82.1     985    2    50          
2008-03-09 18   14.9    81.1     975    2    55          
2008-03-10 00   15.8    79.3     965    3    65          
2008-03-10 06   16.8    78.8     965    3    65          
2008-03-10 12   18.2    78.5     940    4    90          
2008-03-10 18   19.3    78.3     930    4   100          
2008-03-11 00   20.8    78.2     934    4    95          
2008-03-11 06   22.0    78.1     935    4    95          
2008-03-11 12   23.6    78.1     960    3    75          
2008-03-11 18   23.8    78.2     970    3    65          
2008-03-12 00   24.5    79.2     980    2    55          
2008-03-12 06   25.1    79.6     986    1    45          
2008-03-12 12   25.6    80.3    1002    1    35          
Winds are 10-min average.

Tropical cyclone tracks developed by Michael Bath using operational warnings and advisories and Google Maps.


[Australian Severe Weather index] [Copyright Notice] [Email Contacts] [Search This Site] [Privacy Policy]
Document: tropical_cyclone_kamba.htm Updated: 2 May 2017